sensor_id;sensor_type;location;lat;lon;timestamp;P1;durP1;ratioP1;P2;durP2;ratioP2
11879;SDS011;5999;43.256;27.816;2022-08-27T00:01:44;52.03;;;7.60;;
11879;SDS011;5999;43.256;27.816;2022-08-27T00:04:11;34.08;;;7.70;;
11879;SDS011;5999;43.256;27.816;2022-08-27T00:06:38;51.65;;;7.88;;
11879;SDS011;5999;43.256;27.816;2022-08-27T00:09:05;43.63;;;7.25;;
11879;SDS011;5999;43.256;27.816;2022-08-27T00:11:33;51.38;;;7.88;;
11879;SDS011;5999;43.256;27.816;2022-08-27T00:14:00;53.83;;;7.57;;
11879;SDS011;5999;43.256;27.816;2022-08-27T00:16:29;45.67;;;7.43;;
11879;SDS011;5999;43.256;27.816;2022-08-27T00:18:56;42.55;;;7.80;;
11879;SDS011;5999;43.256;27.816;2022-08-27T00:21:24;42.58;;;7.55;;
11879;SDS011;5999;43.256;27.816;2022-08-27T00:23:51;44.97;;;9.07;;
11879;SDS011;5999;43.256;27.816;2022-08-27T00:26:17;53.10;;;7.70;;
11879;SDS011;5999;43.256;27.816;2022-08-27T00:28:45;42.13;;;7.75;;
11879;SDS011;5999;43.256;27.816;2022-08-27T00:31:12;49.28;;;8.70;;
11879;SDS011;5999;43.256;27.816;2022-08-27T00:33:39;34.92;;;7.20;;
11879;SDS011;5999;43.256;27.816;2022-08-27T00:36:07;46.45;;;8.05;;
11879;SDS011;5999;43.256;27.816;2022-08-27T00:38:35;48.17;;;7.43;;
11879;SDS011;5999;43.256;27.816;2022-08-27T00:41:03;42.17;;;7.72;;
11879;SDS011;5999;43.256;27.816;2022-08-27T00:43:46;49.08;;;8.10;;
11879;SDS011;5999;43.256;27.816;2022-08-27T00:46:20;56.78;;;7.88;;
11879;SDS011;5999;43.256;27.816;2022-08-27T00:48:49;43.13;;;6.90;;
11879;SDS011;5999;43.256;27.816;2022-08-27T00:51:18;52.88;;;7.93;;
11879;SDS011;5999;43.256;27.816;2022-08-27T00:53:46;40.58;;;7.30;;
11879;SDS011;5999;43.256;27.816;2022-08-27T00:56:15;43.45;;;6.60;;
11879;SDS011;5999;43.256;27.816;2022-08-27T00:58:46;42.90;;;7.22;;
11879;SDS011;5999;43.256;27.816;2022-08-27T01:01:16;50.45;;;7.47;;
11879;SDS011;5999;43.256;27.816;2022-08-27T01:03:49;55.95;;;8.18;;
11879;SDS011;5999;43.256;27.816;2022-08-27T01:06:19;43.92;;;8.23;;
11879;SDS011;5999;43.256;27.816;2022-08-27T01:08:49;39.10;;;7.65;;
11879;SDS011;5999;43.256;27.816;2022-08-27T01:11:21;48.90;;;7.60;;
11879;SDS011;5999;43.256;27.816;2022-08-27T01:13:49;40.22;;;6.88;;
11879;SDS011;5999;43.256;27.816;2022-08-27T01:16:17;38.63;;;6.95;;
11879;SDS011;5999;43.256;27.816;2022-08-27T01:18:47;37.58;;;7.03;;
11879;SDS011;5999;43.256;27.816;2022-08-27T01:21:19;30.52;;;6.57;;
11879;SDS011;5999;43.256;27.816;2022-08-27T01:23:53;39.33;;;6.80;;
11879;SDS011;5999;43.256;27.816;2022-08-27T01:26:28;40.22;;;6.88;;
11879;SDS011;5999;43.256;27.816;2022-08-27T01:28:56;34.53;;;6.57;;
11879;SDS011;5999;43.256;27.816;2022-08-27T01:31:23;37.67;;;7.18;;
11879;SDS011;5999;43.256;27.816;2022-08-27T01:33:54;34.03;;;7.25;;
11879;SDS011;5999;43.256;27.816;2022-08-27T01:36:24;42.28;;;6.72;;
11879;SDS011;5999;43.256;27.816;2022-08-27T01:38:51;48.67;;;7.72;;
11879;SDS011;5999;43.256;27.816;2022-08-27T01:41:18;38.63;;;6.40;;
11879;SDS011;5999;43.256;27.816;2022-08-27T01:43:45;37.90;;;7.03;;
11879;SDS011;5999;43.256;27.816;2022-08-27T01:46:13;45.13;;;6.75;;
11879;SDS011;5999;43.256;27.816;2022-08-27T01:48:40;56.88;;;7.68;;
11879;SDS011;5999;43.256;27.816;2022-08-27T01:51:07;40.72;;;6.85;;
11879;SDS011;5999;43.256;27.816;2022-08-27T01:53:34;45.53;;;6.60;;
11879;SDS011;5999;43.256;27.816;2022-08-27T01:56:01;38.22;;;6.93;;
11879;SDS011;5999;43.256;27.816;2022-08-27T01:58:29;41.85;;;6.90;;
11879;SDS011;5999;43.256;27.816;2022-08-27T02:00:58;53.03;;;7.03;;
11879;SDS011;5999;43.256;27.816;2022-08-27T02:03:27;36.22;;;6.57;;
11879;SDS011;5999;43.256;27.816;2022-08-27T02:05:54;40.10;;;7.25;;
11879;SDS011;5999;43.256;27.816;2022-08-27T02:08:22;45.90;;;7.05;;
11879;SDS011;5999;43.256;27.816;2022-08-27T02:10:49;47.13;;;8.48;;
11879;SDS011;5999;43.256;27.816;2022-08-27T02:13:16;38.95;;;7.50;;
11879;SDS011;5999;43.256;27.816;2022-08-27T02:15:43;39.72;;;6.50;;
11879;SDS011;5999;43.256;27.816;2022-08-27T02:18:11;35.63;;;6.50;;
11879;SDS011;5999;43.256;27.816;2022-08-27T02:20:39;35.45;;;7.25;;
11879;SDS011;5999;43.256;27.816;2022-08-27T02:23:06;36.05;;;6.65;;
11879;SDS011;5999;43.256;27.816;2022-08-27T02:25:34;36.75;;;6.85;;
11879;SDS011;5999;43.256;27.816;2022-08-27T02:28:01;48.20;;;8.35;;
11879;SDS011;5999;43.256;27.816;2022-08-27T02:30:29;43.15;;;7.30;;
11879;SDS011;5999;43.256;27.816;2022-08-27T02:32:57;42.00;;;7.65;;
11879;SDS011;5999;43.256;27.816;2022-08-27T02:35:25;38.17;;;7.45;;
11879;SDS011;5999;43.256;27.816;2022-08-27T02:37:54;37.67;;;6.53;;
11879;SDS011;5999;43.256;27.816;2022-08-27T02:40:22;42.03;;;7.63;;
11879;SDS011;5999;43.256;27.816;2022-08-27T02:42:50;147.32;;;54.92;;
11879;SDS011;5999;43.256;27.816;2022-08-27T02:45:17;83.95;;;28.08;;
11879;SDS011;5999;43.256;27.816;2022-08-27T02:47:45;141.40;;;54.30;;
11879;SDS011;5999;43.256;27.816;2022-08-27T02:50:12;78.45;;;26.23;;
11879;SDS011;5999;43.256;27.816;2022-08-27T02:52:41;48.70;;;12.75;;
11879;SDS011;5999;43.256;27.816;2022-08-27T02:55:09;51.72;;;8.50;;
11879;SDS011;5999;43.256;27.816;2022-08-27T02:57:37;45.97;;;7.57;;
11879;SDS011;5999;43.256;27.816;2022-08-27T03:00:05;36.97;;;8.00;;
11879;SDS011;5999;43.256;27.816;2022-08-27T03:02:36;40.70;;;9.02;;
11879;SDS011;5999;43.256;27.816;2022-08-27T03:05:03;45.15;;;8.23;;
11879;SDS011;5999;43.256;27.816;2022-08-27T03:07:31;40.80;;;9.00;;
11879;SDS011;5999;43.256;27.816;2022-08-27T03:09:59;55.45;;;9.05;;
11879;SDS011;5999;43.256;27.816;2022-08-27T03:12:26;38.33;;;8.57;;
11879;SDS011;5999;43.256;27.816;2022-08-27T03:14:52;45.83;;;7.32;;
11879;SDS011;5999;43.256;27.816;2022-08-27T03:17:19;41.00;;;7.47;;
11879;SDS011;5999;43.256;27.816;2022-08-27T03:20:04;44.40;;;7.28;;
11879;SDS011;5999;43.256;27.816;2022-08-27T03:22:32;49.75;;;7.28;;
11879;SDS011;5999;43.256;27.816;2022-08-27T03:25:01;43.20;;;9.48;;
11879;SDS011;5999;43.256;27.816;2022-08-27T03:27:28;39.55;;;7.70;;
11879;SDS011;5999;43.256;27.816;2022-08-27T03:29:55;48.17;;;7.53;;
11879;SDS011;5999;43.256;27.816;2022-08-27T03:32:22;42.28;;;6.85;;
11879;SDS011;5999;43.256;27.816;2022-08-27T03:34:49;51.03;;;7.18;;
11879;SDS011;5999;43.256;27.816;2022-08-27T03:37:16;34.33;;;6.70;;
11879;SDS011;5999;43.256;27.816;2022-08-27T03:39:43;36.25;;;7.63;;
11879;SDS011;5999;43.256;27.816;2022-08-27T03:42:10;39.90;;;7.60;;
11879;SDS011;5999;43.256;27.816;2022-08-27T03:44:37;29.05;;;8.27;;
11879;SDS011;5999;43.256;27.816;2022-08-27T03:47:04;29.77;;;8.70;;
11879;SDS011;5999;43.256;27.816;2022-08-27T03:49:31;35.17;;;9.65;;
11879;SDS011;5999;43.256;27.816;2022-08-27T03:51:58;29.70;;;9.73;;
11879;SDS011;5999;43.256;27.816;2022-08-27T03:54:24;41.42;;;9.00;;
11879;SDS011;5999;43.256;27.816;2022-08-27T03:56:51;45.78;;;10.27;;
11879;SDS011;5999;43.256;27.816;2022-08-27T03:59:19;37.00;;;9.18;;
11879;SDS011;5999;43.256;27.816;2022-08-27T04:01:46;40.92;;;8.60;;
11879;SDS011;5999;43.256;27.816;2022-08-27T04:04:13;45.20;;;8.85;;
11879;SDS011;5999;43.256;27.816;2022-08-27T04:06:39;39.45;;;9.60;;
11879;SDS011;5999;43.256;27.816;2022-08-27T04:09:06;31.20;;;8.27;;
11879;SDS011;5999;43.256;27.816;2022-08-27T04:11:33;45.28;;;7.95;;
11879;SDS011;5999;43.256;27.816;2022-08-27T04:14:02;35.30;;;6.90;;
11879;SDS011;5999;43.256;27.816;2022-08-27T04:16:30;38.08;;;7.78;;
11879;SDS011;5999;43.256;27.816;2022-08-27T04:18:57;43.15;;;8.05;;
11879;SDS011;5999;43.256;27.816;2022-08-27T04:21:24;37.53;;;7.90;;
11879;SDS011;5999;43.256;27.816;2022-08-27T04:23:51;49.00;;;8.65;;
11879;SDS011;5999;43.256;27.816;2022-08-27T04:26:18;45.10;;;8.82;;
11879;SDS011;5999;43.256;27.816;2022-08-27T04:28:45;47.03;;;9.27;;
11879;SDS011;5999;43.256;27.816;2022-08-27T04:31:12;40.67;;;7.88;;
11879;SDS011;5999;43.256;27.816;2022-08-27T04:33:41;37.20;;;7.97;;
11879;SDS011;5999;43.256;27.816;2022-08-27T04:36:09;55.88;;;8.68;;
11879;SDS011;5999;43.256;27.816;2022-08-27T04:38:36;48.55;;;8.50;;
11879;SDS011;5999;43.256;27.816;2022-08-27T04:41:03;69.68;;;8.82;;
11879;SDS011;5999;43.256;27.816;2022-08-27T04:43:48;37.95;;;9.02;;
11879;SDS011;5999;43.256;27.816;2022-08-27T04:46:20;55.97;;;9.10;;
11879;SDS011;5999;43.256;27.816;2022-08-27T04:48:48;50.88;;;8.18;;
11879;SDS011;5999;43.256;27.816;2022-08-27T04:51:16;47.17;;;8.25;;
11879;SDS011;5999;43.256;27.816;2022-08-27T04:53:43;46.63;;;8.77;;
11879;SDS011;5999;43.256;27.816;2022-08-27T04:56:12;48.22;;;7.97;;
11879;SDS011;5999;43.256;27.816;2022-08-27T04:58:40;36.92;;;7.70;;
11879;SDS011;5999;43.256;27.816;2022-08-27T05:01:07;52.72;;;9.10;;
11879;SDS011;5999;43.256;27.816;2022-08-27T05:03:39;42.70;;;8.45;;
11879;SDS011;5999;43.256;27.816;2022-08-27T05:06:07;45.92;;;8.00;;
11879;SDS011;5999;43.256;27.816;2022-08-27T05:08:34;36.22;;;8.07;;
11879;SDS011;5999;43.256;27.816;2022-08-27T05:11:01;35.58;;;8.60;;
11879;SDS011;5999;43.256;27.816;2022-08-27T05:13:31;48.75;;;9.85;;
11879;SDS011;5999;43.256;27.816;2022-08-27T05:15:58;52.90;;;12.50;;
11879;SDS011;5999;43.256;27.816;2022-08-27T05:18:28;51.20;;;11.05;;
11879;SDS011;5999;43.256;27.816;2022-08-27T05:20:55;52.45;;;10.10;;
11879;SDS011;5999;43.256;27.816;2022-08-27T05:23:23;52.50;;;9.27;;
11879;SDS011;5999;43.256;27.816;2022-08-27T05:25:52;51.83;;;16.10;;
11879;SDS011;5999;43.256;27.816;2022-08-27T05:28:20;60.63;;;18.80;;
11879;SDS011;5999;43.256;27.816;2022-08-27T05:30:49;76.10;;;22.60;;
11879;SDS011;5999;43.256;27.816;2022-08-27T05:33:19;66.85;;;23.33;;
11879;SDS011;5999;43.256;27.816;2022-08-27T05:35:48;57.70;;;21.10;;
11879;SDS011;5999;43.256;27.816;2022-08-27T05:38:16;59.30;;;18.83;;
11879;SDS011;5999;43.256;27.816;2022-08-27T05:40:44;64.75;;;14.90;;
11879;SDS011;5999;43.256;27.816;2022-08-27T05:43:12;58.70;;;12.70;;
11879;SDS011;5999;43.256;27.816;2022-08-27T05:45:40;60.92;;;10.13;;
11879;SDS011;5999;43.256;27.816;2022-08-27T05:48:09;57.83;;;9.40;;
11879;SDS011;5999;43.256;27.816;2022-08-27T05:50:36;46.05;;;8.88;;
11879;SDS011;5999;43.256;27.816;2022-08-27T05:53:03;57.28;;;8.30;;
11879;SDS011;5999;43.256;27.816;2022-08-27T05:55:34;49.78;;;8.85;;
11879;SDS011;5999;43.256;27.816;2022-08-27T05:58:03;53.08;;;8.38;;
11879;SDS011;5999;43.256;27.816;2022-08-27T06:00:31;47.08;;;9.23;;
11879;SDS011;5999;43.256;27.816;2022-08-27T06:03:16;46.60;;;9.32;;
11879;SDS011;5999;43.256;27.816;2022-08-27T06:05:43;109.03;;;52.78;;
11879;SDS011;5999;43.256;27.816;2022-08-27T06:08:10;80.00;;;30.88;;
11879;SDS011;5999;43.256;27.816;2022-08-27T06:10:38;85.07;;;32.15;;
11879;SDS011;5999;43.256;27.816;2022-08-27T06:13:07;61.17;;;22.00;;
11879;SDS011;5999;43.256;27.816;2022-08-27T06:15:34;66.95;;;15.13;;
11879;SDS011;5999;43.256;27.816;2022-08-27T06:18:01;68.20;;;21.95;;
11879;SDS011;5999;43.256;27.816;2022-08-27T06:20:28;66.85;;;16.25;;
11879;SDS011;5999;43.256;27.816;2022-08-27T06:22:55;63.65;;;24.92;;
11879;SDS011;5999;43.256;27.816;2022-08-27T06:25:22;57.35;;;8.68;;
11879;SDS011;5999;43.256;27.816;2022-08-27T06:27:49;48.33;;;8.23;;
11879;SDS011;5999;43.256;27.816;2022-08-27T06:30:17;53.75;;;8.55;;
11879;SDS011;5999;43.256;27.816;2022-08-27T06:32:44;48.92;;;9.00;;
11879;SDS011;5999;43.256;27.816;2022-08-27T06:35:11;61.72;;;13.63;;
11879;SDS011;5999;43.256;27.816;2022-08-27T06:37:37;63.95;;;13.65;;
11879;SDS011;5999;43.256;27.816;2022-08-27T06:40:05;61.95;;;12.05;;
11879;SDS011;5999;43.256;27.816;2022-08-27T06:42:33;51.00;;;10.50;;
11879;SDS011;5999;43.256;27.816;2022-08-27T06:45:00;59.95;;;10.30;;
11879;SDS011;5999;43.256;27.816;2022-08-27T06:47:30;65.03;;;11.30;;
11879;SDS011;5999;43.256;27.816;2022-08-27T06:49:57;57.72;;;10.38;;
11879;SDS011;5999;43.256;27.816;2022-08-27T06:52:24;56.30;;;9.23;;
11879;SDS011;5999;43.256;27.816;2022-08-27T06:54:51;62.75;;;15.20;;
11879;SDS011;5999;43.256;27.816;2022-08-27T06:57:18;54.75;;;14.32;;
11879;SDS011;5999;43.256;27.816;2022-08-27T06:59:45;69.90;;;13.93;;
11879;SDS011;5999;43.256;27.816;2022-08-27T07:02:12;51.35;;;11.30;;
11879;SDS011;5999;43.256;27.816;2022-08-27T07:04:40;59.63;;;9.90;;
11879;SDS011;5999;43.256;27.816;2022-08-27T07:07:09;56.80;;;10.68;;
11879;SDS011;5999;43.256;27.816;2022-08-27T07:09:38;53.55;;;9.45;;
11879;SDS011;5999;43.256;27.816;2022-08-27T07:12:05;56.78;;;8.80;;
11879;SDS011;5999;43.256;27.816;2022-08-27T07:14:32;42.80;;;7.30;;
11879;SDS011;5999;43.256;27.816;2022-08-27T07:16:59;54.78;;;8.32;;
11879;SDS011;5999;43.256;27.816;2022-08-27T07:19:26;38.97;;;7.90;;
11879;SDS011;5999;43.256;27.816;2022-08-27T07:21:55;38.13;;;7.05;;
11879;SDS011;5999;43.256;27.816;2022-08-27T07:24:23;49.38;;;8.73;;
11879;SDS011;5999;43.256;27.816;2022-08-27T07:26:50;39.38;;;6.63;;
11879;SDS011;5999;43.256;27.816;2022-08-27T07:29:17;47.65;;;7.32;;
11879;SDS011;5999;43.256;27.816;2022-08-27T07:31:44;40.25;;;7.18;;
11879;SDS011;5999;43.256;27.816;2022-08-27T07:34:11;43.88;;;7.15;;
11879;SDS011;5999;43.256;27.816;2022-08-27T07:36:38;46.30;;;7.22;;
11879;SDS011;5999;43.256;27.816;2022-08-27T07:39:06;32.50;;;6.35;;
11879;SDS011;5999;43.256;27.816;2022-08-27T07:41:33;33.33;;;5.95;;
11879;SDS011;5999;43.256;27.816;2022-08-27T07:44:21;30.15;;;6.50;;
11879;SDS011;5999;43.256;27.816;2022-08-27T07:46:51;26.88;;;6.22;;
11879;SDS011;5999;43.256;27.816;2022-08-27T07:49:19;38.15;;;6.20;;
11879;SDS011;5999;43.256;27.816;2022-08-27T07:51:47;40.63;;;6.65;;
11879;SDS011;5999;43.256;27.816;2022-08-27T07:54:15;48.85;;;6.95;;
11879;SDS011;5999;43.256;27.816;2022-08-27T07:56:43;33.15;;;6.88;;
11879;SDS011;5999;43.256;27.816;2022-08-27T07:59:10;40.17;;;6.38;;
11879;SDS011;5999;43.256;27.816;2022-08-27T08:01:37;40.22;;;6.80;;
11879;SDS011;5999;43.256;27.816;2022-08-27T08:04:06;44.25;;;6.35;;
11879;SDS011;5999;43.256;27.816;2022-08-27T08:06:35;48.03;;;6.82;;
11879;SDS011;5999;43.256;27.816;2022-08-27T08:09:03;41.28;;;6.60;;
11879;SDS011;5999;43.256;27.816;2022-08-27T08:11:30;32.20;;;5.57;;
11879;SDS011;5999;43.256;27.816;2022-08-27T08:13:58;30.10;;;6.75;;
11879;SDS011;5999;43.256;27.816;2022-08-27T08:16:26;32.72;;;6.40;;
11879;SDS011;5999;43.256;27.816;2022-08-27T08:18:53;41.15;;;6.70;;
11879;SDS011;5999;43.256;27.816;2022-08-27T08:21:20;35.00;;;6.18;;
11879;SDS011;5999;43.256;27.816;2022-08-27T08:23:47;41.08;;;6.32;;
11879;SDS011;5999;43.256;27.816;2022-08-27T08:26:14;57.55;;;8.20;;
11879;SDS011;5999;43.256;27.816;2022-08-27T08:28:42;37.80;;;6.20;;
11879;SDS011;5999;43.256;27.816;2022-08-27T08:31:09;39.95;;;7.88;;
11879;SDS011;5999;43.256;27.816;2022-08-27T08:33:36;38.75;;;6.70;;
11879;SDS011;5999;43.256;27.816;2022-08-27T08:36:04;40.05;;;7.18;;
11879;SDS011;5999;43.256;27.816;2022-08-27T08:38:34;36.50;;;6.63;;
11879;SDS011;5999;43.256;27.816;2022-08-27T08:41:01;40.85;;;6.90;;
11879;SDS011;5999;43.256;27.816;2022-08-27T08:43:32;44.00;;;6.18;;
11879;SDS011;5999;43.256;27.816;2022-08-27T08:46:06;46.08;;;6.53;;
11879;SDS011;5999;43.256;27.816;2022-08-27T08:48:37;45.65;;;7.15;;
11879;SDS011;5999;43.256;27.816;2022-08-27T08:51:12;46.97;;;7.00;;
11879;SDS011;5999;43.256;27.816;2022-08-27T08:53:45;35.55;;;6.97;;
11879;SDS011;5999;43.256;27.816;2022-08-27T08:56:19;47.65;;;6.82;;
11879;SDS011;5999;43.256;27.816;2022-08-27T08:58:50;50.00;;;7.10;;
11879;SDS011;5999;43.256;27.816;2022-08-27T09:01:22;46.97;;;6.55;;
11879;SDS011;5999;43.256;27.816;2022-08-27T09:03:53;41.58;;;6.75;;
11879;SDS011;5999;43.256;27.816;2022-08-27T09:06:25;30.15;;;6.60;;
11879;SDS011;5999;43.256;27.816;2022-08-27T09:09:06;41.55;;;6.40;;
11879;SDS011;5999;43.256;27.816;2022-08-27T09:11:42;32.92;;;5.53;;
11879;SDS011;5999;43.256;27.816;2022-08-27T09:14:19;48.30;;;7.00;;
11879;SDS011;5999;43.256;27.816;2022-08-27T09:16:56;46.92;;;6.82;;
11879;SDS011;5999;43.256;27.816;2022-08-27T09:19:25;44.50;;;6.25;;
11879;SDS011;5999;43.256;27.816;2022-08-27T09:21:54;45.13;;;7.65;;
11879;SDS011;5999;43.256;27.816;2022-08-27T09:24:26;48.22;;;6.65;;
11879;SDS011;5999;43.256;27.816;2022-08-27T09:27:01;43.13;;;5.80;;
11879;SDS011;5999;43.256;27.816;2022-08-27T09:29:28;31.88;;;5.85;;
11879;SDS011;5999;43.256;27.816;2022-08-27T09:31:57;35.97;;;5.95;;
11879;SDS011;5999;43.256;27.816;2022-08-27T09:34:26;40.38;;;6.32;;
11879;SDS011;5999;43.256;27.816;2022-08-27T09:36:59;40.78;;;6.32;;
11879;SDS011;5999;43.256;27.816;2022-08-27T09:39:37;35.45;;;5.18;;
11879;SDS011;5999;43.256;27.816;2022-08-27T09:42:21;33.60;;;6.38;;
11879;SDS011;5999;43.256;27.816;2022-08-27T09:44:52;43.17;;;6.93;;
11879;SDS011;5999;43.256;27.816;2022-08-27T09:47:20;40.17;;;6.50;;
11879;SDS011;5999;43.256;27.816;2022-08-27T09:49:47;28.77;;;6.20;;
11879;SDS011;5999;43.256;27.816;2022-08-27T09:52:28;44.53;;;5.80;;
11879;SDS011;5999;43.256;27.816;2022-08-27T09:54:58;32.17;;;6.50;;
11879;SDS011;5999;43.256;27.816;2022-08-27T09:57:28;43.75;;;6.40;;
11879;SDS011;5999;43.256;27.816;2022-08-27T09:59:59;36.33;;;6.30;;
11879;SDS011;5999;43.256;27.816;2022-08-27T10:02:27;34.47;;;6.45;;
11879;SDS011;5999;43.256;27.816;2022-08-27T10:04:55;34.97;;;5.85;;
11879;SDS011;5999;43.256;27.816;2022-08-27T10:07:29;35.03;;;6.25;;
11879;SDS011;5999;43.256;27.816;2022-08-27T10:10:03;34.75;;;6.15;;
11879;SDS011;5999;43.256;27.816;2022-08-27T10:12:37;40.60;;;6.70;;
11879;SDS011;5999;43.256;27.816;2022-08-27T10:15:14;48.55;;;12.52;;
11879;SDS011;5999;43.256;27.816;2022-08-27T10:17:44;43.28;;;7.43;;
11879;SDS011;5999;43.256;27.816;2022-08-27T10:20:24;33.05;;;6.40;;
11879;SDS011;5999;43.256;27.816;2022-08-27T10:22:59;38.88;;;8.15;;
11879;SDS011;5999;43.256;27.816;2022-08-27T10:25:38;54.03;;;13.63;;
11879;SDS011;5999;43.256;27.816;2022-08-27T10:28:17;47.20;;;7.60;;
11879;SDS011;5999;43.256;27.816;2022-08-27T10:30:57;51.22;;;13.27;;
11879;SDS011;5999;43.256;27.816;2022-08-27T10:33:36;65.75;;;17.15;;
11879;SDS011;5999;43.256;27.816;2022-08-27T10:49:00;39.88;;;7.40;;
11879;SDS011;5999;43.256;27.816;2022-08-27T10:51:34;40.40;;;6.22;;
11879;SDS011;5999;43.256;27.816;2022-08-27T10:54:17;33.35;;;6.43;;
11879;SDS011;5999;43.256;27.816;2022-08-27T10:56:54;41.08;;;6.07;;
11879;SDS011;5999;43.256;27.816;2022-08-27T10:59:27;37.10;;;5.68;;
11879;SDS011;5999;43.256;27.816;2022-08-27T11:02:05;39.08;;;5.40;;
11879;SDS011;5999;43.256;27.816;2022-08-27T11:04:46;23.00;;;5.07;;
11879;SDS011;5999;43.256;27.816;2022-08-27T11:07:19;34.30;;;6.30;;
11879;SDS011;5999;43.256;27.816;2022-08-27T11:09:51;33.10;;;6.22;;
11879;SDS011;5999;43.256;27.816;2022-08-27T11:12:24;38.88;;;6.60;;
11879;SDS011;5999;43.256;27.816;2022-08-27T11:14:55;46.50;;;6.43;;
11879;SDS011;5999;43.256;27.816;2022-08-27T11:17:30;34.83;;;6.28;;
11879;SDS011;5999;43.256;27.816;2022-08-27T11:20:02;44.08;;;7.07;;
11879;SDS011;5999;43.256;27.816;2022-08-27T11:22:33;40.97;;;7.65;;
11879;SDS011;5999;43.256;27.816;2022-08-27T11:25:05;35.47;;;6.43;;
11879;SDS011;5999;43.256;27.816;2022-08-27T11:27:40;36.47;;;6.15;;
11879;SDS011;5999;43.256;27.816;2022-08-27T11:30:08;49.78;;;6.85;;
11879;SDS011;5999;43.256;27.816;2022-08-27T11:32:46;46.20;;;7.38;;
11879;SDS011;5999;43.256;27.816;2022-08-27T11:35:24;35.67;;;7.03;;
11879;SDS011;5999;43.256;27.816;2022-08-27T11:38:09;31.70;;;6.93;;
11879;SDS011;5999;43.256;27.816;2022-08-27T11:40:49;37.13;;;6.32;;
11879;SDS011;5999;43.256;27.816;2022-08-27T11:43:29;49.83;;;6.53;;
11879;SDS011;5999;43.256;27.816;2022-08-27T11:46:01;27.30;;;6.45;;
11879;SDS011;5999;43.256;27.816;2022-08-27T11:48:30;26.92;;;5.88;;
11879;SDS011;5999;43.256;27.816;2022-08-27T11:51:01;45.22;;;6.78;;
11879;SDS011;5999;43.256;27.816;2022-08-27T11:53:30;39.42;;;6.28;;
11879;SDS011;5999;43.256;27.816;2022-08-27T11:56:08;40.15;;;6.15;;
11879;SDS011;5999;43.256;27.816;2022-08-27T11:58:39;28.55;;;5.53;;
11879;SDS011;5999;43.256;27.816;2022-08-27T12:01:13;36.17;;;6.15;;
11879;SDS011;5999;43.256;27.816;2022-08-27T12:03:41;33.15;;;5.95;;
11879;SDS011;5999;43.256;27.816;2022-08-27T12:06:15;55.45;;;6.22;;
11879;SDS011;5999;43.256;27.816;2022-08-27T12:08:50;52.90;;;7.03;;
11879;SDS011;5999;43.256;27.816;2022-08-27T12:14:13;29.50;;;6.53;;
11879;SDS011;5999;43.256;27.816;2022-08-27T12:16:52;41.08;;;6.60;;
11879;SDS011;5999;43.256;27.816;2022-08-27T12:19:30;44.30;;;7.20;;
11879;SDS011;5999;43.256;27.816;2022-08-27T12:22:24;32.03;;;6.00;;
11879;SDS011;5999;43.256;27.816;2022-08-27T12:25:23;44.45;;;6.43;;
11879;SDS011;5999;43.256;27.816;2022-08-27T12:27:53;36.80;;;7.32;;
11879;SDS011;5999;43.256;27.816;2022-08-27T12:30:22;38.45;;;6.63;;
11879;SDS011;5999;43.256;27.816;2022-08-27T12:32:55;39.17;;;6.82;;
11879;SDS011;5999;43.256;27.816;2022-08-27T12:35:30;34.78;;;6.20;;
11879;SDS011;5999;43.256;27.816;2022-08-27T12:38:10;35.50;;;6.20;;
11879;SDS011;5999;43.256;27.816;2022-08-27T12:40:44;28.08;;;6.25;;
11879;SDS011;5999;43.256;27.816;2022-08-27T12:43:14;41.25;;;6.57;;
11879;SDS011;5999;43.256;27.816;2022-08-27T12:45:45;48.03;;;7.93;;
11879;SDS011;5999;43.256;27.816;2022-08-27T12:48:16;39.50;;;6.20;;
11879;SDS011;5999;43.256;27.816;2022-08-27T12:50:50;34.85;;;6.68;;
11879;SDS011;5999;43.256;27.816;2022-08-27T12:53:22;33.67;;;5.07;;
11879;SDS011;5999;43.256;27.816;2022-08-27T12:56:11;23.17;;;4.50;;
11879;SDS011;5999;43.256;27.816;2022-08-27T12:58:50;37.83;;;5.80;;
11879;SDS011;5999;43.256;27.816;2022-08-27T13:01:31;26.17;;;5.60;;
11879;SDS011;5999;43.256;27.816;2022-08-27T13:04:16;37.33;;;6.18;;
11879;SDS011;5999;43.256;27.816;2022-08-27T13:06:46;34.92;;;6.13;;
11879;SDS011;5999;43.256;27.816;2022-08-27T13:09:14;41.45;;;7.05;;
11879;SDS011;5999;43.256;27.816;2022-08-27T13:11:49;36.53;;;6.40;;
11879;SDS011;5999;43.256;27.816;2022-08-27T13:14:20;32.97;;;6.25;;
11879;SDS011;5999;43.256;27.816;2022-08-27T13:16:49;28.65;;;5.90;;
11879;SDS011;5999;43.256;27.816;2022-08-27T13:19:19;41.05;;;5.88;;
11879;SDS011;5999;43.256;27.816;2022-08-27T13:21:49;46.28;;;7.70;;
11879;SDS011;5999;43.256;27.816;2022-08-27T13:24:20;38.70;;;5.88;;
11879;SDS011;5999;43.256;27.816;2022-08-27T13:26:52;40.33;;;6.57;;
11879;SDS011;5999;43.256;27.816;2022-08-27T13:29:19;38.03;;;6.72;;
11879;SDS011;5999;43.256;27.816;2022-08-27T13:31:46;31.55;;;5.63;;
11879;SDS011;5999;43.256;27.816;2022-08-27T13:34:14;34.15;;;5.10;;
11879;SDS011;5999;43.256;27.816;2022-08-27T13:36:52;36.75;;;5.32;;
11879;SDS011;5999;43.256;27.816;2022-08-27T13:39:22;15.93;;;4.65;;
11879;SDS011;5999;43.256;27.816;2022-08-27T13:41:51;33.33;;;6.65;;
11879;SDS011;5999;43.256;27.816;2022-08-27T13:44:19;39.95;;;5.85;;
11879;SDS011;5999;43.256;27.816;2022-08-27T13:46:49;34.08;;;5.70;;
11879;SDS011;5999;43.256;27.816;2022-08-27T13:49:23;35.92;;;6.47;;
11879;SDS011;5999;43.256;27.816;2022-08-27T13:51:56;29.55;;;6.45;;
11879;SDS011;5999;43.256;27.816;2022-08-27T13:54:27;31.00;;;7.28;;
11879;SDS011;5999;43.256;27.816;2022-08-27T13:56:56;27.00;;;6.38;;
11879;SDS011;5999;43.256;27.816;2022-08-27T13:59:32;31.58;;;6.50;;
11879;SDS011;5999;43.256;27.816;2022-08-27T14:02:03;38.65;;;6.57;;
11879;SDS011;5999;43.256;27.816;2022-08-27T14:04:44;39.58;;;5.70;;
11879;SDS011;5999;43.256;27.816;2022-08-27T14:07:13;35.00;;;6.68;;
11879;SDS011;5999;43.256;27.816;2022-08-27T14:09:48;35.42;;;5.28;;
11879;SDS011;5999;43.256;27.816;2022-08-27T14:12:20;22.58;;;5.40;;
11879;SDS011;5999;43.256;27.816;2022-08-27T14:14:54;36.92;;;6.97;;
11879;SDS011;5999;43.256;27.816;2022-08-27T14:17:23;37.75;;;6.50;;
11879;SDS011;5999;43.256;27.816;2022-08-27T14:19:58;28.10;;;6.05;;
11879;SDS011;5999;43.256;27.816;2022-08-27T14:22:25;38.78;;;7.20;;
11879;SDS011;5999;43.256;27.816;2022-08-27T14:24:53;37.85;;;7.63;;
11879;SDS011;5999;43.256;27.816;2022-08-27T14:27:20;32.42;;;6.32;;
11879;SDS011;5999;43.256;27.816;2022-08-27T14:29:47;32.72;;;6.45;;
11879;SDS011;5999;43.256;27.816;2022-08-27T14:32:14;24.35;;;6.40;;
11879;SDS011;5999;43.256;27.816;2022-08-27T14:34:43;38.72;;;7.63;;
11879;SDS011;5999;43.256;27.816;2022-08-27T14:37:10;36.08;;;6.97;;
11879;SDS011;5999;43.256;27.816;2022-08-27T14:39:38;40.40;;;7.28;;
11879;SDS011;5999;43.256;27.816;2022-08-27T14:42:08;19.92;;;4.93;;
11879;SDS011;5999;43.256;27.816;2022-08-27T14:44:35;31.52;;;6.50;;
11879;SDS011;5999;43.256;27.816;2022-08-27T14:47:02;32.72;;;6.95;;
11879;SDS011;5999;43.256;27.816;2022-08-27T14:49:32;29.13;;;5.80;;
11879;SDS011;5999;43.256;27.816;2022-08-27T14:52:02;29.63;;;7.22;;
11879;SDS011;5999;43.256;27.816;2022-08-27T14:54:30;31.63;;;5.80;;
11879;SDS011;5999;43.256;27.816;2022-08-27T14:56:57;23.13;;;5.20;;
11879;SDS011;5999;43.256;27.816;2022-08-27T14:59:30;32.97;;;6.03;;
11879;SDS011;5999;43.256;27.816;2022-08-27T15:01:57;28.42;;;5.85;;
11879;SDS011;5999;43.256;27.816;2022-08-27T15:04:26;36.92;;;6.57;;
11879;SDS011;5999;43.256;27.816;2022-08-27T15:06:53;36.50;;;6.57;;